Cromona, KY

6:19 AM EDT on March 27, 2015 (GMT -0400)
Ramey Flats | | Change Station
CLOSE
Current Station
Personal Weather Station
Location: Clintwood, VA
Elevation: 1795 ft
Nearby Weather Stations

Elev 1795 ft 37.21 °N, 82.44 °W | Updated 6 minutes ago

Overcast
Overcast
36.3 °F
Feels Like 31 °F
N
6.0
Wind Variable Wind from North
Gusts 12.0 mph

Today
High -- | Low -- °F
--% Chance of Precip.
Yesterday
High -- | Low -- °F
Precip. -- in
7:24 AM 7:48 PM
Waxing Crescent, 51% visible
Pressure 29.81 in
Visibility 1.0 miles
Clouds Overcast 200 ft
Windchill 31 °F
Dew Point 35 °F
Humidity 95%
Rainfall 0.81 in
Snow Depth Not available.
UV 0 out of 12
Pollen 6.20 out of 12
Air Quality Not available.
Flu Activity Not available.
METAR KLNP 270955Z AUTO 34007KT 1SM -RA OVC002 02/02 A2981 RMK AO2

More Conditions Fewer Conditions

Pressure 29.81 in
Visibility 1.0 miles
Clouds Overcast 200 ft
Windchill 31 °F
Dew Point 35 °F
Humidity 95%
Rainfall 0.81 in
Snow Depth Not available.
UV 0 out of 12
Pollen 6.20 out of 12
Air Quality Not available.
Flu Activity Not available.
METAR KLNP 270955Z AUTO 34007KT 1SM -RA OVC002 02/02 A2981 RMK AO2

More Conditions Fewer Conditions

10-Day Weather Forecast

Almanac

Astronomy

Mar. 27, 2015 Rise Set
Actual Time
Civil Twilight
Nautical Twilight
Astronomical Twilight
Moon
Length of Visible Light
Length of Day
Tomorrow will be .
, % of the Moon is Illuminated

Today's Extremes

State Highs State Lows

Community

WunderPhotos

Upload Photos

1,808,705 photos uploaded!

WunderBlogs® & News

Nearby

Air Quality

  Air Quality AQ Index Pollutant
Not available.

Snow Depth

Station Depth Elevation

Earthquake Activity

City Distance Mag. Time & Date
Minimum magnitude displayed is 2.5.

Coastal Water Temperatures

Place Temperature

Stations

Nearby Weather Stations

Station Location Temp. Windchill Dew Point Humidity Wind Precip. Elev Updated Type